Condon, OR

3:14 AM PDT on October 25, 2014 (GMT -0700)
High School | Change Station
CLOSE
Current Station
Personal Weather Station
Location: Condon, OR
Elevation: 2837 ft
Nearby Weather Stations
Active Advisory: Wind Advisory

Elev 2837 ft 45.23 °N, 120.18 °W | Updated 2 seconds ago

Mostly Cloudy
Mostly Cloudy
43.7 °F
Feels Like 44 °F
N
0.0
Wind Variable Wind from NNE
Gusts 0.0 mph

Today
High -- | Low -- °F
--% Chance of Precip.
Yesterday
High -- | Low -- °F
Precip. -- in
7:30 AM 5:58 PM
New Moon, 2% visible
Pressure 29.75 in
Visibility 0.2 miles
Clouds
Windchill 44 °F
Dew Point 43 °F
Humidity 98%
Rainfall 0.00 in
Snow Depth Not available.
UV 0.0 out of 12
Pollen .90 out of 12
Air Quality Not available.
Flu Activity Sporadic
METAR KPDT 250953Z AUTO 32004KT 1/4SM FG VV003 08/08 A2976 RMK AO2 SLP072 T00830078

More Conditions Fewer Conditions

Pressure 29.75 in
Visibility 0.2 miles
Clouds
Windchill 44 °F
Dew Point 43 °F
Humidity 98%
Rainfall 0.00 in
Snow Depth Not available.
UV 0.0 out of 12
Pollen .90 out of 12
Air Quality Not available.
Flu Activity Sporadic
METAR KPDT 250953Z AUTO 32004KT 1/4SM FG VV003 08/08 A2976 RMK AO2 SLP072 T00830078

More Conditions Fewer Conditions

Nowcast | as of 12:48 am PDT on October 25, 2014

Patchy dense fog will continue across portions of central Oregon this evening, as well as the Blue Mountain foothills of Oregon and Washington...including Walla Walla. Web cams and sensors indicate visibilities as low as one quarter of a mile in some locations. Motorists are advised to exercise caution and be prepared for sudden visibility changes when traveling early this morning.

×

10-Day Weather Forecast

Almanac

Astronomy

Oct. 25, 2014 Rise Set
Actual Time 7:30 AM PDT 5:58 PM PDT
Civil Twilight 6:59 AM PDT 6:28 PM PDT
Nautical Twilight 6:25 AM PDT 7:03 PM PDT
Astronomical Twilight 5:51 AM PDT 7:37 PM PDT
Moon 9:17 AM PDT 7:21 PM PDT
Length of Visible Light 11h 29m
Length of Day
10h 28m
Tomorrow will be 2m 56s shorter.
New Moon, 2% of the Moon is Illuminated
Today
New Moon
Oct 30
First Quarter
Nov 6
Full
Nov 14
Last Quarter
Nov 22
New

Today's Extremes

State Highs State Lows

Community

WunderPhotos

Upload Photos

1,764,796 photos uploaded!

Nearby

Snow Depth

Station Depth Elevation
Madison Butte 0 in 5250 ft
Derr 0 in 5670 ft
Lucky Strike 1 in 5050 ft
Clear Lake 1 in 3500 ft
Clackamas Lake 0 in 3400 ft

Earthquake Activity

City Distance Mag. Time & Date
No recent earthquake activity has been reported nearby.
Minimum magnitude displayed is 2.5.

Coastal Water Temperatures

Place Temperature
No Stations Reporting

Nearby Weather Stations